Date,TemperatureHighF,TemperatureAvgF,TemperatureLowF,DewpointHighF,DewpointAvgF,DewpointLowF,HumidityHigh,HumidityAvg,HumidityLow,PressureMaxIn,PressureMinIn,WindSpeedMaxMPH,WindSpeedAvgMPH,GustSpeedMaxMPH,PrecipitationSumIn
2013-2-1,23.9,6.2,-7.5,14.5,-3.8,-15.3,70,63,52,30.42,30.06,4,0,8,0.00
2013-2-2,29.1,21.4,16.4,26.3,13.2,5.9,89,71,56,30.17,29.96,5,2,11,0.00
2013-2-3,32.9,25.8,17.5,28.1,15.3,10.1,89,65,46,30.16,29.76,8,2,16,0.04
2013-2-4,34.3,25.4,18.8,25.5,18.3,13.4,83,74,69,29.97,29.72,4,1,7,0.00
2013-2-5,43.5,31.8,20.6,32.5,25.0,16.3,85,76,63,30.07,29.77,6,1,12,0.07
2013-2-6,44.6,35.8,26.3,32.9,28.8,23.1,91,76,60,30.08,29.86,2,0,12,0.00
2013-2-7,41.2,34.8,27.9,39.5,32.2,24.5,94,90,73,30.14,29.82,6,2,12,0.93
2013-2-8,29.0,27.0,24.8,24.5,22.7,20.4,88,84,80,30.33,30.14,3,0,9,0.00
2013-2-9,38.3,31.5,26.7,30.9,27.2,23.3,90,84,73,30.23,29.79,2,1,7,0.12
2013-2-10,51.7,38.3,31.9,46.6,33.7,22.5,99,84,59,29.78,29.22,9,3,18,0.13
2013-2-11,33.4,30.6,27.6,23.5,21.6,19.4,75,69,64,30.09,29.58,10,5,22,0.00
2013-2-12,44.5,32.9,22.5,24.9,21.9,17.7,85,65,41,30.11,29.83,3,1,10,0.00
2013-2-13,49.9,37.7,26.4,28.9,25.5,21.6,83,63,41,29.83,29.63,4,1,8,0.00
2013-2-14,43.5,36.4,24.7,29.9,26.5,13.9,79,68,52,30.12,29.65,6,3,13,0.00
2013-2-15,27.3,22.2,16.5,13.7,9.7,4.6,73,59,42,30.28,30.13,6,1,12,0.00
2013-2-16,35.0,23.3,12.3,16.0,12.0,7.1,82,63,39,30.27,30.06,3,0,9,0.00
2013-2-17,47.9,33.9,20.8,25.1,20.8,15.2,81,60,39,30.06,29.61,3,0,8,0.00
2013-2-18,43.2,33.0,17.2,32.6,23.2,6.8,81,67,58,29.88,29.49,9,4,20,0.00
2013-2-19,22.5,16.3,9.9,7.9,2.8,-1.2,68,55,41,30.35,29.89,9,5,16,0.00
2013-2-20,22.5,13.3,1.5,7.8,-0.1,-6.6,69,56,41,30.43,30.28,2,0,8,0.00
2013-2-21,23.9,21.3,18.0,21.9,14.7,7.6,92,76,60,30.31,29.79,4,1,11,0.00
2013-2-22,27.6,24.0,21.9,24.4,19.5,14.6,92,83,71,29.96,29.73,4,1,11,0.12
2013-2-23,32.8,23.5,13.8,19.1,14.8,9.3,83,70,55,29.96,29.87,2,0,8,0.11
2013-2-24,41.6,28.6,15.7,27.7,20.2,11.5,85,72,54,30.03,29.90,1,0,2,0.12
2013-2-25,39.8,33.7,27.5,29.5,26.4,22.5,85,75,62,30.04,29.83,1,0,3,0.00
2013-2-26,33.2,31.0,29.1,29.2,27.8,25.4,93,88,78,29.83,29.61,7,2,8,0.07
2013-2-27,30.7,28.1,25.4,27.6,24.9,22.4,93,88,77,29.94,29.73,6,2,9,0.04
2013-2-28,31.6,27.1,23.3,23.7,21.4,18.9,85,79,68,30.13,29.94,4,2,13,0.04